createdAt,value
2019-03-21T00:01:10.611Z,55.80
2019-03-21T00:03:39.865Z,55.90
2019-03-21T00:06:11.253Z,56.00
2019-03-21T00:08:40.374Z,56.00
2019-03-21T00:12:01.420Z,56.70
2019-03-21T00:14:53.353Z,55.90
2019-03-21T00:17:33.126Z,56.10
2019-03-21T00:20:02.445Z,56.10
2019-03-21T00:22:32.185Z,56.30
2019-03-21T00:25:01.445Z,56.20
2019-03-21T00:27:30.543Z,56.10
2019-03-21T00:29:59.953Z,56.20
2019-03-21T00:32:29.200Z,56.40
2019-03-21T00:34:58.713Z,56.50
2019-03-21T00:37:27.939Z,56.60
2019-03-21T00:39:57.501Z,56.60
2019-03-21T00:42:26.720Z,56.80
2019-03-21T00:44:56.179Z,56.90
2019-03-21T00:47:25.469Z,56.90
2019-03-21T00:49:54.758Z,57.70
2019-03-21T00:52:24.038Z,57.20
2019-03-21T00:54:53.361Z,57.50
2019-03-21T00:57:22.989Z,57.80
2019-03-21T00:59:52.530Z,58.00
2019-03-21T01:02:21.746Z,58.00
2019-03-21T01:04:50.794Z,58.30
2019-03-21T01:07:20.178Z,58.40
2019-03-21T01:12:12.155Z,58.50
2019-03-21T01:14:42.049Z,58.60
2019-03-21T01:17:11.406Z,58.60
2019-03-21T01:19:40.722Z,58.90
2019-03-21T01:22:10.451Z,59.00
2019-03-21T01:24:39.800Z,59.30
2019-03-21T01:27:09.034Z,59.30
2019-03-21T01:29:38.355Z,59.60
2019-03-21T01:32:07.750Z,60.00
2019-03-21T01:34:37.321Z,60.20
2019-03-21T01:37:06.386Z,60.20
2019-03-21T01:39:35.655Z,60.70
2019-03-21T01:42:04.952Z,60.60
2019-03-21T01:44:40.954Z,60.90
2019-03-21T01:47:05.684Z,61.40
2019-03-21T01:49:34.865Z,61.80
2019-03-21T01:52:04.098Z,61.90
2019-03-21T01:54:34.159Z,62.20
2019-03-21T01:57:03.872Z,62.30
2019-03-21T01:59:33.088Z,62.70
2019-03-21T02:02:02.950Z,63.20
2019-03-21T02:04:32.602Z,63.20
2019-03-21T02:07:02.143Z,63.10
2019-03-21T02:09:31.510Z,63.50
2019-03-21T02:12:02.875Z,63.90
2019-03-21T02:14:32.249Z,64.20
2019-03-21T02:17:01.513Z,64.30
2019-03-21T02:19:30.867Z,64.40
2019-03-21T02:22:00.138Z,64.70
2019-03-21T02:24:29.478Z,64.90
2019-03-21T02:26:58.736Z,65.40
2019-03-21T02:29:28.386Z,65.00
2019-03-21T02:31:57.583Z,65.10
2019-03-21T02:34:26.873Z,65.30
2019-03-21T02:36:55.835Z,65.50
2019-03-21T02:39:25.267Z,65.80
2019-03-21T02:41:54.459Z,66.00
2019-03-21T02:44:23.868Z,66.10
2019-03-21T02:46:53.152Z,66.20
2019-03-21T02:49:22.522Z,66.30
2019-03-21T02:51:51.638Z,66.20
2019-03-21T02:54:21.258Z,66.50
2019-03-21T02:56:51.247Z,66.10
2019-03-21T02:59:20.608Z,66.30
2019-03-21T03:01:50.188Z,66.40
2019-03-21T03:04:19.259Z,66.50
2019-03-21T03:06:48.546Z,66.20
2019-03-21T03:09:17.788Z,66.30
2019-03-21T03:11:47.055Z,66.30
2019-03-21T03:14:16.399Z,66.50
2019-03-21T03:16:45.686Z,66.80
2019-03-21T03:19:14.917Z,67.10
2019-03-21T03:21:44.142Z,67.20
2019-03-21T03:24:13.523Z,67.30
2019-03-21T03:26:42.601Z,67.40
2019-03-21T03:29:11.957Z,67.50
2019-03-21T03:31:41.381Z,67.90
2019-03-21T03:34:10.644Z,68.00
2019-03-21T03:36:39.800Z,68.00
2019-03-21T03:39:09.443Z,68.00
2019-03-21T03:41:38.737Z,68.80
2019-03-21T03:44:08.523Z,68.10
2019-03-21T03:46:37.851Z,67.80
2019-03-21T03:49:07.344Z,68.00
2019-03-21T03:51:36.517Z,68.10
2019-03-21T03:54:05.851Z,68.50
2019-03-21T03:56:35.375Z,68.70
2019-03-21T03:59:05.212Z,68.70
2019-03-21T04:01:34.712Z,68.70
2019-03-21T04:04:03.965Z,68.70
2019-03-21T04:06:33.033Z,68.80
2019-03-21T04:09:04.215Z,68.80
2019-03-21T04:11:33.831Z,68.80
2019-03-21T04:14:03.060Z,69.10
2019-03-21T04:16:32.304Z,69.30
2019-03-21T04:19:01.580Z,69.30
2019-03-21T04:21:30.988Z,69.30
2019-03-21T04:24:00.326Z,69.30
2019-03-21T04:26:30.430Z,69.60
2019-03-21T04:28:59.566Z,69.70
2019-03-21T04:31:28.733Z,70.00
2019-03-21T04:34:00.349Z,70.10
2019-03-21T04:36:29.342Z,70.30
2019-03-21T04:38:58.381Z,70.40
2019-03-21T04:41:27.850Z,70.40
2019-03-21T04:43:57.133Z,70.40
2019-03-21T04:46:26.239Z,70.50
2019-03-21T04:48:55.375Z,70.70
2019-03-21T04:51:24.739Z,70.70
2019-03-21T04:53:53.866Z,70.90
2019-03-21T04:56:23.329Z,70.90
2019-03-21T04:58:52.910Z,71.10
2019-03-21T05:01:22.054Z,71.50
2019-03-21T05:03:51.499Z,71.80
2019-03-21T05:06:20.754Z,71.90
2019-03-21T05:08:50.102Z,72.00
2019-03-21T05:11:19.531Z,72.40
2019-03-21T05:13:48.961Z,72.30
2019-03-21T05:16:18.360Z,72.30
2019-03-21T05:18:48.227Z,72.30
2019-03-21T05:21:17.724Z,72.30
2019-03-21T05:23:46.752Z,72.60
2019-03-21T05:26:15.770Z,72.70
2019-03-21T05:28:45.423Z,72.90
2019-03-21T05:31:22.536Z,73.00
2019-03-21T05:33:51.686Z,72.90
2019-03-21T05:36:20.888Z,72.90
2019-03-21T05:38:51.037Z,73.10
2019-03-21T05:41:20.156Z,73.20
2019-03-21T05:44:04.106Z,73.90
2019-03-21T05:46:34.924Z,73.90
2019-03-21T05:49:05.637Z,74.00
2019-03-21T05:51:34.807Z,74.00
2019-03-21T05:54:04.211Z,74.20
2019-03-21T05:56:33.499Z,74.40
2019-03-21T05:59:04.068Z,74.40
2019-03-21T06:01:33.992Z,74.40
2019-03-21T06:04:03.621Z,74.20
2019-03-21T06:07:02.538Z,74.50
2019-03-21T06:09:31.749Z,74.70
2019-03-21T06:12:02.439Z,75.10
2019-03-21T06:14:31.674Z,75.00
2019-03-21T06:17:01.109Z,75.40
2019-03-21T06:20:14.435Z,75.20
2019-03-21T06:23:21.751Z,75.00
2019-03-21T06:26:57.290Z,75.50
2019-03-21T06:29:26.680Z,76.00
2019-03-21T06:31:55.930Z,76.40
2019-03-21T06:34:25.634Z,76.50
2019-03-21T06:36:54.942Z,76.40
2019-03-21T06:39:24.229Z,76.30
2019-03-21T06:41:53.808Z,76.10
2019-03-21T06:44:23.017Z,76.00
2019-03-21T06:46:52.434Z,76.30
2019-03-21T06:49:22.384Z,76.50
2019-03-21T06:51:51.502Z,76.90
2019-03-21T06:54:21.644Z,76.90
2019-03-21T06:56:51.069Z,77.00
2019-03-21T06:59:20.608Z,77.00
2019-03-21T07:01:50.107Z,76.90
2019-03-21T07:04:19.426Z,76.80
2019-03-21T07:06:48.491Z,77.00
2019-03-21T07:09:18.067Z,77.10
2019-03-21T07:11:47.621Z,77.40
2019-03-21T07:14:16.954Z,77.80
2019-03-21T07:16:46.061Z,77.80
2019-03-21T07:19:15.148Z,77.50
2019-03-21T07:21:44.619Z,77.90
2019-03-21T07:24:13.720Z,78.20
2019-03-21T07:26:43.131Z,78.40
2019-03-21T07:29:12.880Z,78.60
2019-03-21T07:31:42.314Z,78.70
2019-03-21T07:34:11.403Z,78.60
2019-03-21T07:36:40.946Z,78.40
2019-03-21T07:39:10.538Z,78.30
2019-03-21T07:41:39.887Z,78.30
2019-03-21T07:44:09.237Z,78.20
2019-03-21T07:46:38.453Z,77.60
2019-03-21T07:49:08.266Z,77.10
2019-03-21T07:51:37.998Z,76.70
2019-03-21T07:54:07.139Z,76.80
2019-03-21T07:56:36.584Z,75.90
2019-03-21T07:59:05.843Z,75.40
2019-03-21T08:01:35.219Z,75.10
2019-03-21T08:04:04.577Z,75.00
2019-03-21T08:06:33.733Z,74.90
2019-03-21T08:09:04.193Z,74.90
2019-03-21T08:11:33.330Z,74.50
2019-03-21T08:14:02.591Z,74.70
2019-03-21T08:16:32.180Z,74.50
2019-03-21T08:19:02.149Z,73.90
2019-03-21T08:21:31.487Z,73.30
2019-03-21T08:24:00.641Z,73.30
2019-03-21T08:26:30.075Z,74.00
2019-03-21T08:28:59.340Z,74.20
2019-03-21T08:31:28.383Z,74.10
2019-03-21T08:33:57.641Z,73.80
2019-03-21T08:36:27.009Z,73.70
2019-03-21T08:38:56.133Z,72.30
2019-03-21T08:41:25.250Z,71.20
2019-03-21T08:43:54.529Z,71.30
2019-03-21T08:46:23.744Z,70.60
2019-03-21T08:48:52.865Z,69.00
2019-03-21T08:51:22.038Z,67.90
2019-03-21T08:53:51.422Z,65.60
2019-03-21T08:56:20.765Z,68.00
2019-03-21T08:58:49.966Z,68.40
2019-03-21T09:01:19.203Z,69.50
2019-03-21T09:03:48.936Z,66.90
2019-03-21T09:06:18.571Z,66.00
2019-03-21T09:08:47.847Z,67.10
2019-03-21T09:11:17.120Z,67.60
2019-03-21T09:13:46.251Z,66.30
2019-03-21T09:16:15.331Z,65.20
2019-03-21T09:18:44.751Z,62.50
2019-03-21T09:21:19.749Z,63.00
2019-03-21T09:23:45.146Z,63.60
2019-03-21T09:26:14.452Z,58.10
2019-03-21T09:28:43.805Z,57.40
2019-03-21T09:31:13.258Z,59.00
2019-03-21T09:33:42.703Z,60.10
2019-03-21T09:36:11.945Z,59.80
2019-03-21T09:38:41.210Z,59.80
2019-03-21T09:41:10.361Z,59.30
2019-03-21T09:43:39.621Z,58.20
2019-03-21T09:46:08.793Z,58.60
2019-03-21T09:48:38.512Z,58.70
2019-03-21T09:51:07.819Z,59.90
2019-03-21T09:53:37.342Z,63.70
2019-03-21T09:56:06.679Z,66.50
2019-03-21T09:58:36.019Z,64.70
2019-03-21T10:01:05.379Z,62.60
2019-03-21T10:03:34.596Z,63.10
2019-03-21T10:06:03.932Z,63.90
2019-03-21T10:08:33.074Z,66.10
2019-03-21T10:11:02.691Z,68.00
2019-03-21T10:13:32.272Z,69.10
2019-03-21T10:16:02.269Z,69.60
2019-03-21T10:18:31.807Z,70.00
2019-03-21T10:21:01.270Z,70.20
2019-03-21T10:23:30.542Z,70.50
2019-03-21T10:25:59.780Z,70.70
2019-03-21T10:28:29.543Z,70.40
2019-03-21T10:30:58.816Z,69.80
2019-03-21T10:33:28.264Z,68.50
2019-03-21T10:35:57.704Z,66.50
2019-03-21T10:38:26.923Z,60.90
2019-03-21T10:40:56.295Z,56.60
2019-03-21T10:43:25.949Z,54.90
2019-03-21T10:45:55.091Z,53.90
2019-03-21T10:48:24.553Z,53.80
2019-03-21T10:50:54.126Z,54.70
2019-03-21T10:53:23.453Z,56.60
2019-03-21T10:55:52.622Z,58.30
2019-03-21T10:58:22.426Z,59.80
2019-03-21T11:00:51.622Z,60.80
2019-03-21T11:03:21.282Z,61.50
2019-03-21T11:05:50.589Z,59.20
2019-03-21T11:08:20.087Z,56.90
2019-03-21T11:10:49.738Z,53.60
2019-03-21T11:13:19.107Z,51.20
2019-03-21T11:15:48.360Z,48.00
2019-03-21T11:18:17.603Z,46.50
2019-03-21T11:20:46.738Z,45.40
2019-03-21T11:23:16.248Z,45.10
2019-03-21T11:25:45.470Z,46.00
2019-03-21T11:28:17.611Z,47.90
2019-03-21T11:30:46.286Z,49.80
2019-03-21T11:33:15.581Z,50.80
2019-03-21T11:35:44.840Z,50.40
2019-03-21T11:38:14.314Z,48.80
2019-03-21T11:40:43.846Z,48.80
2019-03-21T11:43:17.912Z,47.60
2019-03-21T11:45:48.002Z,49.40
2019-03-21T11:48:18.197Z,50.40
2019-03-21T11:50:47.779Z,48.90
2019-03-21T11:53:17.144Z,50.40
2019-03-21T11:55:46.504Z,51.30
2019-03-21T11:58:17.695Z,52.80
2019-03-21T12:00:46.846Z,52.90
2019-03-21T12:03:16.323Z,53.50
2019-03-21T12:05:45.638Z,54.00
2019-03-21T12:08:15.195Z,52.00
2019-03-21T12:10:44.623Z,50.20
2019-03-21T12:13:14.346Z,49.20
2019-03-21T12:15:43.603Z,48.40
2019-03-21T12:18:13.036Z,50.10
2019-03-21T12:20:42.408Z,52.00
2019-03-21T12:23:11.846Z,52.70
2019-03-21T12:25:41.088Z,51.90
2019-03-21T12:28:10.314Z,53.10
2019-03-21T12:30:41.740Z,53.80
2019-03-21T12:33:11.196Z,53.70
2019-03-21T12:35:40.195Z,54.10
2019-03-21T12:38:09.659Z,53.80
2019-03-21T12:40:38.680Z,53.40
2019-03-21T12:43:08.350Z,52.70
2019-03-21T12:45:37.701Z,52.60
2019-03-21T12:48:06.861Z,52.30
2019-03-21T12:50:36.193Z,51.60
2019-03-21T12:53:05.796Z,50.90
2019-03-21T12:55:35.441Z,51.60
2019-03-21T12:58:04.656Z,51.10
2019-03-21T13:00:43.979Z,51.80
2019-03-21T13:03:13.307Z,51.70
2019-03-21T13:05:43.716Z,50.30
2019-03-21T13:08:13.028Z,50.30
2019-03-21T13:10:42.301Z,50.60
2019-03-21T13:13:11.643Z,51.20
2019-03-21T13:15:41.300Z,51.70
2019-03-21T13:18:10.714Z,51.70
2019-03-21T13:20:39.882Z,51.80
2019-03-21T13:23:09.143Z,52.20
2019-03-21T13:25:38.405Z,50.40
2019-03-21T13:28:07.738Z,49.40
2019-03-21T13:30:37.203Z,48.20
2019-03-21T13:33:06.587Z,47.20
2019-03-21T13:35:36.000Z,47.40
2019-03-21T13:38:05.391Z,47.60
2019-03-21T13:40:34.906Z,48.90
2019-03-21T13:43:05.458Z,49.10
2019-03-21T13:45:34.695Z,47.60
2019-03-21T13:48:04.601Z,46.70
2019-03-21T13:50:33.995Z,45.70
2019-03-21T13:53:05.123Z,45.30
2019-03-21T13:55:35.113Z,47.10
2019-03-21T13:58:04.188Z,47.50
2019-03-21T14:00:33.531Z,47.50
2019-03-21T14:03:03.197Z,48.60
2019-03-21T14:05:32.533Z,48.40
2019-03-21T14:08:02.115Z,47.10
2019-03-21T14:10:32.390Z,46.70
2019-03-21T14:13:01.633Z,45.70
2019-03-21T14:15:30.931Z,44.10
2019-03-21T14:18:00.564Z,43.70
2019-03-21T14:20:29.918Z,43.10
2019-03-21T14:22:59.311Z,42.30
2019-03-21T14:25:29.091Z,42.80
2019-03-21T14:27:58.666Z,42.90
2019-03-21T14:30:27.986Z,44.60
2019-03-21T14:32:57.067Z,45.40
2019-03-21T14:35:26.670Z,46.00
2019-03-21T14:37:55.878Z,45.90
2019-03-21T14:40:25.490Z,46.00
2019-03-21T14:42:55.140Z,46.20
2019-03-21T14:45:24.471Z,46.40
2019-03-21T14:47:53.657Z,46.60
2019-03-21T14:50:23.246Z,46.80
2019-03-21T14:52:52.583Z,47.60
2019-03-21T14:55:21.739Z,48.00
2019-03-21T14:57:51.520Z,48.60
2019-03-21T15:00:21.032Z,48.30
2019-03-21T15:02:50.718Z,48.50
2019-03-21T15:05:20.291Z,48.50
2019-03-21T15:07:49.525Z,48.20
2019-03-21T15:10:19.008Z,48.20
2019-03-21T15:12:48.625Z,48.30
2019-03-21T15:15:17.926Z,48.60
2019-03-21T15:17:47.233Z,48.40
2019-03-21T15:20:16.421Z,48.60
2019-03-21T15:22:45.763Z,48.60
2019-03-21T15:25:15.850Z,48.60
2019-03-21T15:27:45.362Z,48.60
2019-03-21T15:30:18.008Z,47.60
2019-03-21T15:32:47.599Z,47.60
2019-03-21T15:35:18.015Z,47.70
2019-03-21T15:37:47.790Z,47.90
2019-03-21T15:40:16.908Z,48.40
2019-03-21T15:42:46.316Z,48.90
2019-03-21T15:45:22.751Z,49.40
2019-03-21T15:47:47.635Z,50.00
2019-03-21T15:50:41.428Z,50.30
2019-03-21T15:53:10.749Z,50.70
2019-03-21T15:55:40.129Z,50.90
2019-03-21T15:58:09.812Z,51.10
2019-03-21T16:00:40.441Z,51.50
2019-03-21T16:03:10.979Z,52.10
2019-03-21T16:05:40.710Z,52.80
2019-03-21T16:08:10.533Z,53.50
2019-03-21T16:10:39.984Z,54.00
2019-03-21T16:13:09.365Z,53.90
2019-03-21T16:15:38.456Z,54.90
2019-03-21T16:18:07.637Z,54.40
2019-03-21T16:20:37.235Z,54.60
2019-03-21T16:23:06.523Z,54.80
2019-03-21T16:25:35.770Z,54.90
2019-03-21T16:28:05.732Z,55.30
2019-03-21T16:30:35.177Z,55.10
2019-03-21T16:33:04.594Z,55.40
2019-03-21T16:35:33.720Z,55.60
2019-03-21T16:38:03.214Z,56.20
2019-03-21T16:40:32.843Z,56.70
2019-03-21T16:43:05.312Z,57.30
2019-03-21T16:45:33.556Z,57.50
2019-03-21T16:48:03.201Z,57.90
2019-03-21T16:50:32.466Z,58.50
2019-03-21T16:53:01.664Z,58.60
2019-03-21T16:55:31.059Z,58.80
2019-03-21T16:58:00.187Z,59.10
2019-03-21T17:00:29.255Z,59.00
2019-03-21T17:02:58.387Z,59.10
2019-03-21T17:05:27.988Z,59.10
2019-03-21T17:07:57.313Z,59.40
2019-03-21T17:10:26.486Z,59.70
2019-03-21T17:12:55.943Z,59.90
2019-03-21T17:15:25.470Z,60.10
2019-03-21T17:17:54.817Z,60.60
2019-03-21T17:20:24.096Z,60.20
2019-03-21T17:22:53.414Z,60.60
2019-03-21T17:25:22.572Z,60.70
2019-03-21T17:27:54.702Z,60.70
2019-03-21T17:30:23.396Z,61.00
2019-03-21T17:32:52.697Z,61.10
2019-03-21T17:35:21.943Z,61.20
2019-03-21T17:37:51.237Z,61.60
2019-03-21T17:40:20.322Z,62.00
2019-03-21T17:42:49.641Z,62.30
2019-03-21T17:45:19.329Z,62.50
2019-03-21T17:47:48.903Z,63.00
2019-03-21T17:50:18.780Z,63.10
2019-03-21T17:52:48.098Z,64.00
2019-03-21T17:55:17.271Z,63.30
2019-03-21T17:57:46.647Z,63.40
2019-03-21T18:00:18.371Z,63.60
2019-03-21T18:02:47.689Z,63.40
2019-03-21T18:05:18.121Z,63.50
2019-03-21T18:07:47.299Z,63.40
2019-03-21T18:10:31.595Z,63.40
2019-03-21T18:13:01.514Z,63.70
2019-03-21T18:15:31.027Z,64.30
2019-03-21T18:18:02.472Z,64.70
2019-03-21T18:20:31.838Z,64.60
2019-03-21T18:23:02.174Z,64.80
2019-03-21T18:25:31.420Z,65.10
2019-03-21T18:28:00.625Z,65.40
2019-03-21T18:30:30.047Z,65.60
2019-03-21T18:32:59.310Z,65.90
2019-03-21T18:35:29.273Z,66.30
2019-03-21T18:37:58.531Z,66.90
2019-03-21T18:40:30.522Z,68.00
2019-03-21T18:42:59.790Z,67.20
2019-03-21T18:45:29.193Z,67.30
2019-03-21T18:47:58.152Z,67.60
2019-03-21T18:50:27.569Z,67.50
2019-03-21T18:52:56.801Z,67.30
2019-03-21T18:55:26.039Z,68.00
2019-03-21T18:57:55.414Z,68.30
2019-03-21T19:00:24.957Z,68.90
2019-03-21T19:02:54.231Z,68.80
2019-03-21T19:05:23.356Z,69.40
2019-03-21T19:07:52.452Z,69.90
2019-03-21T19:10:21.987Z,71.00
2019-03-21T19:12:51.127Z,70.50
2019-03-21T19:15:20.569Z,71.00
2019-03-21T19:17:50.133Z,71.40
2019-03-21T19:20:20.520Z,71.50
2019-03-21T19:22:49.961Z,71.70
2019-03-21T19:25:20.076Z,72.10
2019-03-21T19:27:49.168Z,72.80
2019-03-21T19:30:19.158Z,73.40
2019-03-21T19:32:48.634Z,73.50
2019-03-21T19:35:18.098Z,74.00
2019-03-21T19:37:47.335Z,74.10
2019-03-21T19:40:17.250Z,74.70
2019-03-21T19:42:46.529Z,74.80
2019-03-21T19:45:16.400Z,75.40
2019-03-21T19:47:45.583Z,75.60
2019-03-21T19:50:16.483Z,76.00
2019-03-21T19:52:45.733Z,76.30
2019-03-21T19:55:15.136Z,76.70
2019-03-21T19:57:44.482Z,77.10
2019-03-21T20:00:16.852Z,76.60
2019-03-21T20:02:46.264Z,77.00
2019-03-21T20:05:15.717Z,77.20
2019-03-21T20:07:45.272Z,77.40
2019-03-21T20:10:15.558Z,77.50
2019-03-21T20:12:45.110Z,78.10
2019-03-21T20:15:15.106Z,78.70
2019-03-21T20:17:44.338Z,79.00
2019-03-21T20:20:14.568Z,79.70
2019-03-21T20:22:44.063Z,79.30
2019-03-21T20:25:14.552Z,79.70
2019-03-21T20:27:43.607Z,80.00
2019-03-21T20:30:15.432Z,80.20
2019-03-21T20:32:44.729Z,80.20
2019-03-21T20:35:14.372Z,80.40
2019-03-21T20:37:43.828Z,80.40
2019-03-21T20:40:13.400Z,80.50
2019-03-21T20:42:42.661Z,80.60
2019-03-21T20:45:13.043Z,80.40
2019-03-21T20:47:42.148Z,80.60
2019-03-21T20:50:12.477Z,80.70
2019-03-21T20:52:41.716Z,80.90
2019-03-21T20:55:11.645Z,80.80
2019-03-21T20:57:40.939Z,81.10
2019-03-21T21:00:15.329Z,81.20
2019-03-21T21:02:44.906Z,81.20
2019-03-21T21:05:14.524Z,81.00
2019-03-21T21:07:44.021Z,80.90
2019-03-21T21:10:13.847Z,81.20
2019-03-21T21:12:43.371Z,81.50
2019-03-21T21:15:13.272Z,81.50
2019-03-21T21:17:43.261Z,81.40
2019-03-21T21:20:13.279Z,81.60
2019-03-21T21:22:42.836Z,81.70
2019-03-21T21:25:12.849Z,82.00
2019-03-21T21:27:49.405Z,82.10
2019-03-21T21:30:16.561Z,81.90
2019-03-21T21:32:45.848Z,82.00
2019-03-21T21:35:15.465Z,82.50
2019-03-21T21:37:45.389Z,82.70
2019-03-21T21:40:16.117Z,83.80
2019-03-21T21:42:45.586Z,82.80
2019-03-21T21:45:15.260Z,82.90
2019-03-21T21:47:44.483Z,82.80
2019-03-21T21:50:14.067Z,83.10
2019-03-21T21:52:43.272Z,82.80
2019-03-21T21:55:13.190Z,83.20
2019-03-21T21:57:42.509Z,83.50
2019-03-21T22:00:14.030Z,83.70
2019-03-21T22:02:43.686Z,84.00
2019-03-21T22:05:13.387Z,84.20
2019-03-21T22:07:42.516Z,83.80
2019-03-21T22:10:12.318Z,84.60
2019-03-21T22:12:41.835Z,84.70
2019-03-21T22:15:11.450Z,84.80
2019-03-21T22:17:40.610Z,85.00
2019-03-21T22:20:10.885Z,85.00
2019-03-21T22:22:40.242Z,84.80
2019-03-21T22:25:09.771Z,84.90
2019-03-21T22:27:39.739Z,85.00
2019-03-21T22:30:11.471Z,84.80
2019-03-21T22:32:40.684Z,85.00
2019-03-21T22:35:10.285Z,85.20
2019-03-21T22:37:40.082Z,85.50
2019-03-21T22:40:09.767Z,85.50
2019-03-21T22:42:39.730Z,85.50
2019-03-21T22:45:10.418Z,85.50
2019-03-21T22:47:40.152Z,85.40
2019-03-21T22:50:11.838Z,85.40
2019-03-21T22:52:41.252Z,86.50
2019-03-21T22:55:10.774Z,85.70
2019-03-21T22:57:40.019Z,85.70
2019-03-21T23:00:13.772Z,85.50
2019-03-21T23:02:43.482Z,85.50
2019-03-21T23:05:13.266Z,85.50
2019-03-21T23:07:42.653Z,85.60
2019-03-21T23:10:12.637Z,85.50
2019-03-21T23:12:42.220Z,85.80
2019-03-21T23:15:12.050Z,85.90
2019-03-21T23:17:41.798Z,86.30
2019-03-21T23:20:11.437Z,86.30
2019-03-21T23:22:40.654Z,86.40
2019-03-21T23:25:12.596Z,86.60
2019-03-21T23:27:41.681Z,86.50
2019-03-21T23:30:12.015Z,86.40
2019-03-21T23:32:41.388Z,86.50
2019-03-21T23:35:10.847Z,86.50
2019-03-21T23:37:40.089Z,86.60
2019-03-21T23:40:09.962Z,86.90
2019-03-21T23:42:39.083Z,87.00
2019-03-21T23:45:09.296Z,87.30
2019-03-21T23:47:38.726Z,87.80
2019-03-21T23:50:08.676Z,87.90
2019-03-21T23:52:38.104Z,88.10
2019-03-21T23:55:08.480Z,88.20
2019-03-21T23:57:37.935Z,88.30
